createdAt,value
2018-03-19T00:00:52.863Z,2.43
2018-03-19T00:03:20.476Z,2.33
2018-03-19T00:05:48.873Z,2.57
2018-03-19T00:08:17.249Z,2.63
2018-03-19T00:10:45.658Z,2.33
2018-03-19T00:13:13.264Z,2.53
2018-03-19T00:15:42.408Z,2.20
2018-03-19T00:18:10.006Z,2.23
2018-03-19T00:20:37.664Z,2.20
2018-03-19T00:23:05.266Z,2.60
2018-03-19T00:25:33.626Z,1.80
2018-03-19T00:28:01.259Z,2.20
2018-03-19T00:30:28.866Z,2.40
2018-03-19T00:32:57.273Z,2.20
2018-03-19T00:35:25.637Z,2.20
2018-03-19T00:37:53.268Z,2.10
2018-03-19T00:40:20.892Z,2.17
2018-03-19T00:42:48.513Z,2.50
2018-03-19T00:45:16.932Z,2.40
2018-03-19T00:47:45.159Z,2.13
2018-03-19T00:50:13.536Z,2.00
2018-03-19T00:52:41.987Z,2.00
2018-03-19T00:55:09.600Z,2.03
2018-03-19T00:57:37.212Z,1.90
2018-03-19T01:00:04.912Z,2.30
2018-03-19T01:02:33.349Z,2.10
2018-03-19T01:05:00.985Z,2.30
2018-03-19T01:07:28.588Z,2.10
2018-03-19T01:09:56.234Z,2.43
2018-03-19T01:12:23.844Z,2.20
2018-03-19T01:14:51.461Z,2.07
2018-03-19T01:17:19.053Z,2.60
2018-03-19T01:19:48.230Z,2.23
2018-03-19T01:22:15.845Z,2.20
2018-03-19T01:24:44.237Z,2.93
2018-03-19T01:27:11.853Z,2.20
2018-03-19T01:29:40.237Z,2.60
2018-03-19T01:32:09.270Z,2.00
2018-03-19T01:34:36.902Z,2.00
2018-03-19T01:37:04.640Z,2.07
2018-03-19T01:39:33.089Z,2.57
2018-03-19T01:42:00.739Z,1.90
2018-03-19T01:44:28.330Z,2.03
2018-03-19T01:46:56.354Z,1.93
2018-03-19T01:49:23.964Z,1.70
2018-03-19T01:51:51.981Z,2.27
2018-03-19T01:54:19.589Z,2.00
2018-03-19T01:56:47.219Z,1.83
2018-03-19T01:59:15.229Z,2.20
2018-03-19T02:01:42.889Z,2.30
2018-03-19T02:04:10.887Z,2.23
2018-03-19T02:06:38.587Z,2.10
2018-03-19T02:09:06.273Z,2.07
2018-03-19T02:11:33.888Z,1.90
2018-03-19T02:14:01.496Z,2.13
2018-03-19T02:16:29.140Z,2.07
2018-03-19T02:18:56.772Z,1.70
2018-03-19T02:21:24.393Z,1.70
2018-03-19T02:23:52.067Z,1.97
2018-03-19T02:26:20.467Z,1.93
2018-03-19T02:28:48.072Z,2.27
2018-03-19T02:31:15.717Z,1.83
2018-03-19T02:33:43.310Z,2.00
2018-03-19T02:36:11.773Z,2.07
2018-03-19T02:38:39.784Z,1.83
2018-03-19T02:41:08.204Z,1.77
2018-03-19T02:43:37.344Z,2.03
2018-03-19T02:46:05.765Z,2.03
2018-03-19T02:48:33.386Z,2.10
2018-03-19T02:51:02.138Z,2.00
2018-03-19T02:53:29.764Z,2.33
2018-03-19T02:55:58.129Z,1.60
2018-03-19T02:58:26.565Z,2.23
2018-03-19T03:00:54.177Z,1.70
2018-03-19T03:03:21.793Z,2.00
2018-03-19T03:05:49.412Z,1.80
2018-03-19T03:08:17.061Z,1.70
2018-03-19T03:10:44.760Z,1.67
2018-03-19T03:13:12.416Z,2.00
2018-03-19T03:15:40.010Z,1.97
2018-03-19T03:18:08.366Z,1.90
2018-03-19T03:20:35.976Z,1.90
2018-03-19T03:23:05.145Z,2.00
2018-03-19T03:25:32.756Z,1.80
2018-03-19T03:28:00.547Z,1.83
2018-03-19T03:30:28.129Z,2.00
2018-03-19T03:32:55.717Z,1.67
2018-03-19T03:35:24.249Z,1.77
2018-03-19T03:37:51.948Z,1.70
2018-03-19T03:40:20.323Z,1.70
2018-03-19T03:42:47.961Z,1.57
2018-03-19T03:45:15.893Z,2.00
2018-03-19T03:47:43.544Z,1.87
2018-03-19T03:50:11.653Z,1.83
2018-03-19T03:52:39.869Z,1.90
2018-03-19T03:55:08.307Z,2.13
2018-03-19T03:57:35.908Z,1.70
2018-03-19T04:00:04.357Z,1.93
2018-03-19T04:02:31.965Z,1.83
2018-03-19T04:05:00.364Z,1.70
2018-03-19T04:07:27.995Z,1.90
2018-03-19T04:09:57.005Z,1.90
2018-03-19T04:12:25.524Z,2.10
2018-03-19T04:14:53.127Z,2.30
2018-03-19T04:17:22.481Z,1.63
2018-03-19T04:19:50.110Z,1.77
2018-03-19T04:22:17.766Z,1.63
2018-03-19T04:24:46.252Z,2.10
2018-03-19T04:27:13.836Z,2.37
2018-03-19T04:29:41.453Z,2.13
2018-03-19T04:32:09.818Z,1.97
2018-03-19T04:34:37.456Z,1.50
2018-03-19T04:37:05.456Z,1.90
2018-03-19T04:39:33.069Z,1.90
2018-03-19T04:42:00.653Z,1.97
2018-03-19T04:44:28.301Z,1.70
2018-03-19T04:46:55.966Z,2.07
2018-03-19T04:49:23.571Z,1.70
2018-03-19T04:51:51.954Z,1.73
2018-03-19T04:54:20.564Z,1.47
2018-03-19T04:56:48.185Z,2.03
2018-03-19T04:59:15.915Z,1.87
2018-03-19T05:01:43.534Z,2.10
2018-03-19T05:04:11.902Z,2.20
2018-03-19T05:06:40.895Z,2.10
2018-03-19T05:09:09.429Z,2.10
2018-03-19T05:11:38.166Z,1.57
2018-03-19T05:14:06.564Z,2.17
2018-03-19T05:16:34.196Z,1.93
2018-03-19T05:19:02.557Z,2.10
2018-03-19T05:21:30.201Z,1.80
2018-03-19T05:23:57.820Z,2.07
2018-03-19T05:26:25.520Z,1.90
2018-03-19T05:28:54.292Z,2.23
2018-03-19T05:31:21.938Z,1.93
2018-03-19T05:33:50.732Z,1.93
2018-03-19T05:36:18.330Z,2.10
2018-03-19T05:38:46.026Z,2.20
2018-03-19T05:41:15.966Z,2.33
2018-03-19T05:43:43.968Z,2.30
2018-03-19T05:46:11.624Z,1.90
2018-03-19T05:48:39.229Z,2.20
2018-03-19T05:51:07.656Z,2.00
2018-03-19T05:53:35.263Z,1.87
2018-03-19T05:56:02.854Z,2.13
2018-03-19T05:58:30.493Z,2.10
2018-03-19T06:00:58.489Z,2.17
2018-03-19T06:03:26.144Z,2.20
2018-03-19T06:05:54.153Z,2.00
2018-03-19T06:08:22.023Z,1.90
2018-03-19T06:10:49.645Z,2.00
2018-03-19T06:13:17.244Z,1.90
2018-03-19T06:15:44.895Z,2.33
2018-03-19T06:18:12.508Z,2.03
2018-03-19T06:20:40.879Z,2.07
2018-03-19T06:23:08.498Z,2.10
2018-03-19T06:25:36.080Z,1.90
2018-03-19T06:28:03.771Z,1.83
2018-03-19T06:30:31.422Z,2.00
2018-03-19T06:32:59.029Z,2.10
2018-03-19T06:35:26.676Z,1.90
2018-03-19T06:37:54.303Z,2.10
2018-03-19T06:40:21.901Z,1.97
2018-03-19T06:42:49.593Z,1.90
2018-03-19T06:45:17.226Z,2.10
2018-03-19T06:47:44.821Z,1.87
2018-03-19T06:50:13.219Z,1.80
2018-03-19T06:52:40.809Z,2.40
2018-03-19T06:55:09.235Z,2.30
2018-03-19T06:57:36.821Z,1.60
2018-03-19T07:00:04.560Z,1.80
2018-03-19T07:02:32.192Z,1.77
2018-03-19T07:04:59.803Z,2.53
2018-03-19T07:07:27.460Z,2.43
2018-03-19T07:09:55.117Z,1.90
2018-03-19T07:12:23.850Z,1.63
2018-03-19T07:14:52.257Z,1.90
2018-03-19T07:17:19.907Z,2.20
2018-03-19T07:19:47.533Z,2.20
2018-03-19T07:22:15.909Z,2.13
2018-03-19T07:24:43.539Z,2.03
2018-03-19T07:27:11.171Z,1.50
2018-03-19T07:29:38.783Z,1.83
2018-03-19T07:32:06.395Z,1.80
2018-03-19T07:34:34.073Z,1.93
2018-03-19T07:37:01.666Z,1.83
2018-03-19T07:39:30.775Z,2.00
2018-03-19T07:41:59.206Z,2.10
2018-03-19T07:44:27.561Z,1.60
2018-03-19T07:46:55.491Z,2.10
2018-03-19T07:49:23.129Z,2.13
2018-03-19T07:51:50.731Z,2.17
2018-03-19T07:54:19.127Z,1.87
2018-03-19T07:56:46.719Z,2.17
2018-03-19T07:59:14.337Z,1.80
2018-03-19T08:01:42.712Z,1.40
2018-03-19T08:04:11.097Z,1.60
2018-03-19T08:06:39.456Z,1.70
2018-03-19T08:09:07.088Z,1.87
2018-03-19T08:11:34.696Z,1.90
2018-03-19T08:14:03.086Z,1.93
2018-03-19T08:16:30.709Z,1.97
2018-03-19T08:18:58.477Z,1.70
2018-03-19T08:21:26.115Z,2.03
2018-03-19T08:23:53.750Z,1.77
2018-03-19T08:26:21.359Z,1.90
2018-03-19T08:28:48.973Z,1.93
2018-03-19T08:31:16.659Z,1.80
2018-03-19T08:33:45.380Z,1.73
2018-03-19T08:36:13.766Z,1.70
2018-03-19T08:38:42.870Z,1.57
2018-03-19T08:41:11.264Z,1.97
2018-03-19T08:43:38.900Z,1.87
2018-03-19T08:46:07.977Z,1.70
2018-03-19T08:48:35.625Z,1.73
2018-03-19T08:51:04.649Z,1.83
2018-03-19T08:53:33.005Z,1.70
2018-03-19T08:56:00.636Z,2.10
2018-03-19T08:58:28.226Z,1.67
2018-03-19T09:00:55.983Z,1.97
2018-03-19T09:03:23.578Z,1.60
2018-03-19T09:05:52.353Z,1.73
2018-03-19T09:08:19.941Z,1.83
2018-03-19T09:10:47.567Z,1.57
2018-03-19T09:13:15.212Z,1.67
2018-03-19T09:15:42.801Z,2.00
2018-03-19T09:18:10.448Z,1.90
2018-03-19T09:20:38.056Z,1.90
2018-03-19T09:23:05.668Z,1.73
2018-03-19T09:25:33.325Z,1.67
2018-03-19T09:28:00.930Z,1.63
2018-03-19T09:30:28.549Z,1.77
2018-03-19T09:32:56.163Z,2.20
2018-03-19T09:35:24.593Z,1.63
2018-03-19T09:37:52.195Z,1.60
2018-03-19T09:40:20.204Z,1.40
2018-03-19T09:42:47.821Z,1.80
2018-03-19T09:45:16.455Z,1.80
2018-03-19T09:47:44.225Z,1.60
2018-03-19T09:50:11.817Z,1.90
2018-03-19T09:52:40.246Z,1.60
2018-03-19T09:55:07.869Z,1.53
2018-03-19T09:57:35.877Z,1.53
2018-03-19T10:00:03.592Z,1.50
2018-03-19T10:02:32.714Z,1.40
2018-03-19T10:05:00.409Z,1.63
2018-03-19T10:07:28.024Z,1.60
2018-03-19T10:09:56.543Z,1.70
2018-03-19T10:12:24.152Z,1.50
2018-03-19T10:14:52.534Z,1.50
2018-03-19T10:17:20.954Z,1.67
2018-03-19T10:19:48.570Z,1.50
2018-03-19T10:22:16.948Z,1.60
2018-03-19T10:24:45.365Z,1.60
2018-03-19T10:27:12.981Z,1.50
2018-03-19T10:29:40.961Z,1.50
2018-03-19T10:32:09.375Z,1.90
2018-03-19T10:34:36.986Z,1.80
2018-03-19T10:37:04.580Z,1.83
2018-03-19T10:39:32.200Z,1.63
2018-03-19T10:41:59.785Z,1.50
2018-03-19T10:44:28.243Z,1.33
2018-03-19T10:46:55.827Z,1.83
2018-03-19T10:49:24.208Z,1.70
2018-03-19T10:51:52.613Z,1.67
2018-03-19T10:54:20.605Z,1.60
2018-03-19T10:56:48.232Z,1.63
2018-03-19T10:59:15.854Z,1.77
2018-03-19T11:01:43.971Z,1.60
2018-03-19T11:04:14.278Z,1.60
2018-03-19T11:07:00.414Z,1.30
2018-03-19T11:09:28.080Z,1.60
2018-03-19T11:11:55.808Z,1.80
2018-03-19T11:14:23.412Z,1.57
2018-03-19T11:16:51.033Z,1.43
2018-03-19T11:19:18.621Z,1.37
2018-03-19T11:21:46.256Z,1.80
2018-03-19T11:24:13.868Z,1.27
2018-03-19T11:26:41.505Z,1.50
2018-03-19T11:29:09.112Z,1.40
2018-03-19T11:31:38.217Z,1.27
2018-03-19T11:34:06.630Z,1.20
2018-03-19T11:36:34.249Z,1.50
2018-03-19T11:39:02.297Z,1.70
2018-03-19T11:41:29.935Z,1.60
2018-03-19T11:43:57.586Z,1.80
2018-03-19T11:46:25.975Z,1.50
2018-03-19T11:48:53.566Z,1.80
2018-03-19T11:51:21.253Z,1.50
2018-03-19T11:53:49.637Z,1.30
2018-03-19T11:56:18.007Z,1.20
2018-03-19T11:58:46.436Z,1.80
2018-03-19T12:01:14.072Z,1.50
2018-03-19T12:03:41.697Z,1.40
2018-03-19T12:06:10.057Z,1.40
2018-03-19T12:08:37.730Z,1.40
2018-03-19T12:11:05.410Z,1.50
2018-03-19T12:13:33.779Z,1.77
2018-03-19T12:16:01.394Z,1.60
2018-03-19T12:18:28.996Z,1.40
2018-03-19T12:20:56.641Z,1.50
2018-03-19T12:23:24.399Z,1.70
2018-03-19T12:25:51.993Z,1.60
2018-03-19T12:28:21.004Z,1.60
2018-03-19T12:30:48.611Z,1.50
2018-03-19T12:33:16.275Z,1.37
2018-03-19T12:35:43.865Z,1.57
2018-03-19T12:38:12.244Z,1.60
2018-03-19T12:40:40.643Z,1.10
2018-03-19T12:43:09.002Z,1.50
2018-03-19T12:45:37.406Z,1.57
2018-03-19T12:48:05.001Z,1.20
2018-03-19T12:50:32.644Z,1.53
2018-03-19T12:53:00.248Z,1.37
2018-03-19T12:55:28.211Z,1.60
2018-03-19T12:57:55.825Z,1.23
2018-03-19T13:00:23.434Z,1.40
2018-03-19T13:02:51.076Z,1.53
2018-03-19T13:05:18.687Z,1.17
2018-03-19T13:07:47.326Z,1.43
2018-03-19T13:10:14.913Z,1.50
2018-03-19T13:12:42.516Z,1.27
2018-03-19T13:15:10.152Z,1.60
2018-03-19T13:17:38.572Z,1.50
2018-03-19T13:20:06.469Z,1.40
2018-03-19T13:22:34.063Z,1.40
2018-03-19T13:25:03.234Z,1.87
2018-03-19T13:27:31.236Z,1.57
2018-03-19T13:29:59.669Z,1.40
2018-03-19T13:32:27.258Z,1.40
2018-03-19T13:34:55.641Z,1.43
2018-03-19T13:37:24.040Z,1.37
2018-03-19T13:39:52.043Z,1.40
2018-03-19T13:42:20.305Z,1.50
2018-03-19T13:44:47.913Z,1.50
2018-03-19T13:47:15.916Z,1.40
2018-03-19T13:49:43.533Z,1.40
2018-03-19T13:52:11.152Z,1.60
2018-03-19T13:54:38.823Z,1.50
2018-03-19T13:57:06.435Z,1.40
2018-03-19T13:59:34.030Z,1.70
2018-03-19T14:02:01.675Z,1.60
2018-03-19T14:04:30.029Z,1.40
2018-03-19T14:06:57.620Z,1.67
2018-03-19T14:09:25.252Z,1.50
2018-03-19T14:11:52.897Z,1.40
2018-03-19T14:14:20.509Z,1.17
2018-03-19T14:16:48.824Z,1.40
2018-03-19T14:19:16.813Z,1.40
2018-03-19T14:21:44.451Z,1.37
2018-03-19T14:24:12.050Z,1.67
2018-03-19T14:26:40.461Z,1.40
2018-03-19T14:29:08.092Z,1.50
2018-03-19T14:31:36.470Z,1.57
2018-03-19T14:34:04.894Z,1.40
2018-03-19T14:36:32.510Z,1.23
2018-03-19T14:39:00.890Z,1.40
2018-03-19T14:41:29.304Z,1.40
2018-03-19T14:43:57.037Z,1.57
2018-03-19T14:46:26.509Z,1.40
2018-03-19T14:48:54.106Z,1.40
2018-03-19T14:51:22.516Z,1.33
2018-03-19T14:53:50.110Z,1.27
2018-03-19T14:56:17.754Z,1.47
2018-03-19T14:58:45.355Z,1.50
2018-03-19T15:01:12.952Z,1.40
2018-03-19T15:03:40.658Z,1.23
2018-03-19T15:06:09.343Z,1.30
2018-03-19T15:08:36.988Z,1.17
2018-03-19T15:11:04.594Z,1.40
2018-03-19T15:13:32.947Z,1.70
2018-03-19T15:16:00.709Z,1.30
2018-03-19T15:18:28.321Z,1.30
2018-03-19T15:20:55.957Z,1.50
2018-03-19T15:23:24.378Z,1.40
2018-03-19T15:25:52.075Z,1.30
2018-03-19T15:28:19.668Z,1.50
2018-03-19T15:30:48.022Z,1.13
2018-03-19T15:33:17.026Z,1.40
2018-03-19T15:35:45.385Z,1.40
2018-03-19T15:38:13.031Z,1.70
2018-03-19T15:40:40.664Z,1.27
2018-03-19T15:43:08.287Z,1.33
2018-03-19T15:45:36.012Z,1.30
2018-03-19T15:48:05.015Z,1.70
2018-03-19T15:50:33.383Z,1.40
2018-03-19T15:53:00.969Z,1.40
2018-03-19T15:55:28.631Z,1.43
2018-03-19T15:57:56.249Z,1.30
2018-03-19T16:00:23.874Z,1.50
2018-03-19T16:02:52.274Z,2.07
2018-03-19T16:05:19.869Z,1.40
2018-03-19T16:07:47.513Z,1.53
2018-03-19T16:10:15.895Z,1.80
2018-03-19T16:12:43.494Z,1.60
2018-03-19T16:15:11.129Z,1.63
2018-03-19T16:17:38.760Z,2.00
2018-03-19T16:20:07.316Z,2.00
2018-03-19T16:22:36.279Z,1.70
2018-03-19T16:25:03.957Z,1.67
2018-03-19T16:27:31.592Z,1.80
2018-03-19T16:29:59.273Z,1.57
2018-03-19T16:32:26.928Z,1.97
2018-03-19T16:34:55.198Z,1.50
2018-03-19T16:37:22.825Z,1.70
2018-03-19T16:39:50.814Z,2.00
2018-03-19T16:42:18.442Z,2.07
2018-03-19T16:44:46.820Z,1.63
2018-03-19T16:47:15.172Z,1.57
2018-03-19T16:49:42.811Z,1.37
2018-03-19T16:52:10.415Z,1.50
2018-03-19T16:54:39.189Z,1.80
2018-03-19T16:57:07.554Z,1.73
2018-03-19T16:59:36.746Z,1.50
2018-03-19T17:02:04.372Z,1.67
2018-03-19T17:04:32.353Z,1.50
2018-03-19T17:06:59.969Z,1.83
2018-03-19T17:09:28.023Z,1.67
2018-03-19T17:11:55.653Z,1.60
2018-03-19T17:14:23.242Z,1.47
2018-03-19T17:16:50.901Z,1.83
2018-03-19T17:19:20.036Z,1.80
2018-03-19T17:21:47.740Z,1.80
2018-03-19T17:24:15.465Z,1.70
2018-03-19T17:26:43.570Z,1.90
2018-03-19T17:29:11.938Z,1.70
2018-03-19T17:31:40.862Z,1.60
2018-03-19T17:34:08.912Z,1.40
2018-03-19T17:36:36.517Z,1.40
2018-03-19T17:39:04.976Z,1.57
2018-03-19T17:41:33.359Z,1.50
2018-03-19T17:44:01.001Z,1.73
2018-03-19T17:46:28.629Z,1.50
2018-03-19T17:48:57.045Z,1.83
2018-03-19T17:51:24.704Z,1.83
2018-03-19T17:53:52.325Z,1.50
2018-03-19T17:56:20.361Z,1.50
2018-03-19T17:58:47.995Z,1.60
2018-03-19T18:01:17.008Z,1.13
2018-03-19T18:03:44.600Z,1.77
2018-03-19T18:06:12.206Z,1.33
2018-03-19T18:08:39.892Z,1.50
2018-03-19T18:11:07.524Z,1.40
2018-03-19T18:13:35.201Z,1.43
2018-03-19T18:16:02.828Z,1.50
2018-03-19T18:18:30.465Z,1.47
2018-03-19T18:20:58.823Z,1.47
2018-03-19T18:23:26.846Z,1.80
2018-03-19T18:25:54.480Z,1.47
2018-03-19T18:28:22.507Z,1.47
2018-03-19T18:30:50.114Z,1.60
2018-03-19T18:33:17.737Z,1.50
2018-03-19T18:35:45.353Z,1.13
2018-03-19T18:38:13.020Z,1.53
2018-03-19T18:40:40.632Z,1.40
2018-03-19T18:43:08.250Z,1.30
2018-03-19T18:45:36.840Z,1.60
2018-03-19T18:48:04.472Z,1.23
2018-03-19T18:50:32.110Z,1.17
2018-03-19T18:53:00.533Z,1.30
2018-03-19T18:55:28.149Z,1.90
2018-03-19T18:57:56.566Z,1.30
2018-03-19T19:00:24.180Z,1.53
2018-03-19T19:02:53.130Z,1.30
2018-03-19T19:05:23.269Z,1.70
2018-03-19T19:07:50.881Z,1.70
2018-03-19T19:10:18.504Z,1.60
2018-03-19T19:12:47.469Z,1.40
2018-03-19T19:15:15.816Z,1.70
2018-03-19T19:17:43.880Z,1.60
2018-03-19T19:20:12.631Z,1.73
2018-03-19T19:22:40.249Z,1.90
2018-03-19T19:25:09.392Z,1.47
2018-03-19T19:27:37.116Z,1.87
2018-03-19T19:30:04.897Z,1.80
2018-03-19T19:32:32.612Z,1.50
2018-03-19T19:35:00.969Z,1.70
2018-03-19T19:37:29.405Z,1.60
2018-03-19T19:39:57.816Z,1.77
2018-03-19T19:42:25.432Z,1.87
2018-03-19T19:44:53.114Z,2.00
2018-03-19T19:47:20.739Z,2.07
2018-03-19T19:49:48.372Z,2.40
2018-03-19T19:52:15.974Z,2.63
2018-03-19T19:54:43.622Z,2.37
2018-03-19T19:57:12.058Z,2.67
2018-03-19T19:59:39.708Z,2.53
2018-03-19T20:02:07.333Z,2.60
2018-03-19T20:04:34.967Z,2.30
2018-03-19T20:07:03.385Z,2.87
2018-03-19T20:09:30.971Z,2.67
2018-03-19T20:11:59.054Z,2.93
2018-03-19T20:14:26.660Z,2.70
2018-03-19T20:16:54.309Z,2.13
2018-03-19T20:19:22.669Z,2.77
2018-03-19T20:21:50.313Z,2.30
2018-03-19T20:24:19.220Z,2.60
2018-03-19T20:26:47.501Z,2.73
2018-03-19T20:29:15.417Z,3.07
2018-03-19T20:31:43.219Z,2.67
2018-03-19T20:34:11.680Z,2.80
2018-03-19T20:36:39.293Z,2.90
2018-03-19T20:39:07.836Z,2.70
2018-03-19T20:41:35.425Z,2.67
2018-03-19T20:44:03.854Z,2.67
2018-03-19T20:46:31.464Z,2.73
2018-03-19T20:49:00.630Z,2.77
2018-03-19T20:51:29.003Z,2.63
2018-03-19T20:53:56.857Z,2.97
2018-03-19T20:56:24.517Z,3.30
2018-03-19T20:58:53.575Z,2.73
2018-03-19T21:01:22.315Z,2.87
2018-03-19T21:03:49.971Z,3.20
2018-03-19T21:06:18.581Z,2.73
2018-03-19T21:08:46.220Z,3.47
2018-03-19T21:11:13.877Z,2.67
2018-03-19T21:13:41.511Z,2.67
2018-03-19T21:16:09.363Z,2.67
2018-03-19T21:18:37.796Z,2.60
2018-03-19T21:21:05.428Z,2.60
2018-03-19T21:23:33.034Z,2.40
2018-03-19T21:26:00.662Z,2.63
2018-03-19T21:28:28.313Z,2.73
2018-03-19T21:30:56.695Z,2.83
2018-03-19T21:33:24.293Z,2.73
2018-03-19T21:35:53.319Z,2.80
2018-03-19T21:38:21.682Z,2.50
2018-03-19T21:40:49.329Z,2.80
2018-03-19T21:43:17.318Z,2.10
2018-03-19T21:45:46.326Z,2.40
2018-03-19T21:48:15.297Z,2.90
2018-03-19T21:50:42.893Z,2.50
2018-03-19T21:53:10.528Z,2.20
2018-03-19T21:55:38.904Z,2.77
2018-03-19T21:58:07.309Z,2.50
2018-03-19T22:00:34.929Z,2.87
2018-03-19T22:03:02.534Z,2.40
2018-03-19T22:05:30.187Z,3.03
2018-03-19T22:07:57.837Z,2.90
2018-03-19T22:10:26.197Z,2.87
2018-03-19T22:12:53.841Z,2.60
2018-03-19T22:15:21.482Z,2.80
2018-03-19T22:17:49.083Z,3.00
2018-03-19T22:20:16.735Z,2.70
2018-03-19T22:22:45.862Z,2.80
2018-03-19T22:25:14.240Z,2.40
2018-03-19T22:27:42.620Z,2.70
2018-03-19T22:30:11.041Z,2.10
2018-03-19T22:32:38.660Z,2.47
2018-03-19T22:35:07.036Z,2.83
2018-03-19T22:37:35.782Z,2.83
2018-03-19T22:40:04.177Z,2.90
2018-03-19T22:42:31.875Z,2.77
2018-03-19T22:44:59.857Z,2.30
2018-03-19T22:47:27.561Z,2.67
2018-03-19T22:49:55.592Z,2.67
2018-03-19T22:52:23.194Z,2.60
2018-03-19T22:54:50.828Z,2.90
2018-03-19T22:57:18.430Z,2.50
2018-03-19T22:59:46.058Z,2.67
2018-03-19T23:02:13.649Z,2.50
2018-03-19T23:04:50.194Z,2.40
2018-03-19T23:07:17.841Z,2.50
2018-03-19T23:09:45.504Z,2.87
2018-03-19T23:12:13.098Z,2.20
2018-03-19T23:14:40.689Z,2.20
2018-03-19T23:17:09.124Z,2.17
2018-03-19T23:19:36.712Z,2.30
2018-03-19T23:22:05.084Z,2.43
2018-03-19T23:24:32.720Z,2.17
2018-03-19T23:27:01.096Z,2.83
2018-03-19T23:29:28.729Z,2.30
2018-03-19T23:31:56.378Z,2.53
2018-03-19T23:34:23.966Z,2.63
2018-03-19T23:36:51.620Z,2.23
2018-03-19T23:39:19.226Z,2.47
2018-03-19T23:41:46.832Z,2.40
2018-03-19T23:44:14.474Z,2.27
2018-03-19T23:46:42.832Z,2.13
2018-03-19T23:49:12.224Z,2.10
2018-03-19T23:51:40.458Z,2.90
2018-03-19T23:54:08.252Z,2.37
2018-03-19T23:56:35.907Z,2.50
2018-03-19T23:59:04.383Z,2.30
